sensor_id;sensor_type;location;lat;lon;timestamp;P1;durP1;ratioP1;P2;durP2;ratioP2
57842;SDS011;43673;51.058;3.734;2022-09-09T00:04:30;8.13;;;2.38;;
57842;SDS011;43673;51.058;3.734;2022-09-09T00:10:00;5.22;;;2.90;;
57842;SDS011;43673;51.058;3.734;2022-09-09T00:12:39;4.93;;;2.72;;
57842;SDS011;43673;51.058;3.734;2022-09-09T00:15:21;9.35;;;3.05;;
57842;SDS011;43673;51.058;3.734;2022-09-09T00:18:03;6.78;;;2.33;;
57842;SDS011;43673;51.058;3.734;2022-09-09T00:21:06;9.25;;;2.47;;
57842;SDS011;43673;51.058;3.734;2022-09-09T00:23:39;5.43;;;2.10;;
57842;SDS011;43673;51.058;3.734;2022-09-09T00:26:23;9.73;;;2.33;;
57842;SDS011;43673;51.058;3.734;2022-09-09T00:29:14;7.13;;;2.53;;
57842;SDS011;43673;51.058;3.734;2022-09-09T00:31:45;4.00;;;2.33;;
57842;SDS011;43673;51.058;3.734;2022-09-09T00:34:13;5.05;;;2.80;;
57842;SDS011;43673;51.058;3.734;2022-09-09T00:36:42;7.10;;;2.20;;
57842;SDS011;43673;51.058;3.734;2022-09-09T00:44:39;6.75;;;2.13;;
57842;SDS011;43673;51.058;3.734;2022-09-09T00:50:16;6.20;;;3.08;;
57842;SDS011;43673;51.058;3.734;2022-09-09T00:56:16;5.55;;;2.45;;
57842;SDS011;43673;51.058;3.734;2022-09-09T00:59:07;5.10;;;2.30;;
57842;SDS011;43673;51.058;3.734;2022-09-09T01:01:35;7.47;;;2.35;;
57842;SDS011;43673;51.058;3.734;2022-09-09T01:04:01;5.85;;;2.58;;
57842;SDS011;43673;51.058;3.734;2022-09-09T01:06:32;5.15;;;2.55;;
57842;SDS011;43673;51.058;3.734;2022-09-09T01:17:14;5.18;;;2.17;;
57842;SDS011;43673;51.058;3.734;2022-09-09T01:19:50;4.45;;;2.42;;
57842;SDS011;43673;51.058;3.734;2022-09-09T01:28:29;7.72;;;2.22;;
57842;SDS011;43673;51.058;3.734;2022-09-09T01:30:57;7.00;;;3.15;;
57842;SDS011;43673;51.058;3.734;2022-09-09T01:33:25;6.63;;;2.65;;
57842;SDS011;43673;51.058;3.734;2022-09-09T01:35:54;4.95;;;2.20;;
57842;SDS011;43673;51.058;3.734;2022-09-09T01:38:27;5.82;;;1.88;;
57842;SDS011;43673;51.058;3.734;2022-09-09T01:40:54;7.50;;;2.50;;
57842;SDS011;43673;51.058;3.734;2022-09-09T01:43:21;9.00;;;2.78;;
57842;SDS011;43673;51.058;3.734;2022-09-09T01:45:48;7.50;;;2.30;;
57842;SDS011;43673;51.058;3.734;2022-09-09T01:48:17;6.85;;;2.13;;
57842;SDS011;43673;51.058;3.734;2022-09-09T01:50:44;10.30;;;2.50;;
57842;SDS011;43673;51.058;3.734;2022-09-09T01:53:09;5.18;;;2.45;;
57842;SDS011;43673;51.058;3.734;2022-09-09T01:55:37;9.60;;;3.00;;
57842;SDS011;43673;51.058;3.734;2022-09-09T01:58:11;8.05;;;2.50;;
57842;SDS011;43673;51.058;3.734;2022-09-09T02:00:51;11.00;;;3.20;;
57842;SDS011;43673;51.058;3.734;2022-09-09T02:03:27;4.32;;;2.55;;
57842;SDS011;43673;51.058;3.734;2022-09-09T02:08:51;8.30;;;4.10;;
57842;SDS011;43673;51.058;3.734;2022-09-09T02:11:24;7.22;;;2.70;;
57842;SDS011;43673;51.058;3.734;2022-09-09T02:13:53;8.77;;;2.53;;
57842;SDS011;43673;51.058;3.734;2022-09-09T02:16:26;11.43;;;2.75;;
57842;SDS011;43673;51.058;3.734;2022-09-09T02:19:00;8.75;;;3.05;;
57842;SDS011;43673;51.058;3.734;2022-09-09T02:21:46;10.75;;;2.40;;
57842;SDS011;43673;51.058;3.734;2022-09-09T02:24:12;5.13;;;2.70;;
57842;SDS011;43673;51.058;3.734;2022-09-09T02:26:41;6.90;;;3.22;;
57842;SDS011;43673;51.058;3.734;2022-09-09T02:29:11;5.78;;;3.13;;
57842;SDS011;43673;51.058;3.734;2022-09-09T02:31:41;7.85;;;3.78;;
57842;SDS011;43673;51.058;3.734;2022-09-09T02:34:09;7.80;;;2.50;;
57842;SDS011;43673;51.058;3.734;2022-09-09T02:36:38;6.60;;;2.30;;
57842;SDS011;43673;51.058;3.734;2022-09-09T02:39:07;6.07;;;2.78;;
57842;SDS011;43673;51.058;3.734;2022-09-09T02:41:35;4.70;;;2.75;;
57842;SDS011;43673;51.058;3.734;2022-09-09T02:44:13;7.80;;;2.55;;
57842;SDS011;43673;51.058;3.734;2022-09-09T02:50:07;9.23;;;2.88;;
57842;SDS011;43673;51.058;3.734;2022-09-09T02:58:14;11.77;;;3.67;;
57842;SDS011;43673;51.058;3.734;2022-09-09T03:00:43;10.45;;;2.78;;
57842;SDS011;43673;51.058;3.734;2022-09-09T03:03:13;14.05;;;3.10;;
57842;SDS011;43673;51.058;3.734;2022-09-09T03:05:41;11.75;;;2.45;;
57842;SDS011;43673;51.058;3.734;2022-09-09T03:08:07;10.43;;;2.75;;
57842;SDS011;43673;51.058;3.734;2022-09-09T03:10:33;13.20;;;2.95;;
57842;SDS011;43673;51.058;3.734;2022-09-09T03:12:59;14.18;;;3.17;;
57842;SDS011;43673;51.058;3.734;2022-09-09T03:15:25;12.25;;;4.00;;
57842;SDS011;43673;51.058;3.734;2022-09-09T03:17:55;7.15;;;3.15;;
57842;SDS011;43673;51.058;3.734;2022-09-09T03:20:22;11.10;;;3.40;;
57842;SDS011;43673;51.058;3.734;2022-09-09T03:22:52;6.93;;;2.85;;
57842;SDS011;43673;51.058;3.734;2022-09-09T03:25:19;8.05;;;3.20;;
57842;SDS011;43673;51.058;3.734;2022-09-09T03:27:45;9.23;;;2.75;;
57842;SDS011;43673;51.058;3.734;2022-09-09T03:30:11;11.25;;;2.90;;
57842;SDS011;43673;51.058;3.734;2022-09-09T03:32:37;11.30;;;3.55;;
57842;SDS011;43673;51.058;3.734;2022-09-09T03:35:03;10.85;;;3.60;;
57842;SDS011;43673;51.058;3.734;2022-09-09T03:37:29;8.77;;;3.58;;
57842;SDS011;43673;51.058;3.734;2022-09-09T03:39:54;11.90;;;3.60;;
57842;SDS011;43673;51.058;3.734;2022-09-09T03:42:20;17.05;;;4.22;;
57842;SDS011;43673;51.058;3.734;2022-09-09T03:44:46;11.23;;;3.70;;
57842;SDS011;43673;51.058;3.734;2022-09-09T03:47:20;9.77;;;3.47;;
57842;SDS011;43673;51.058;3.734;2022-09-09T03:49:50;11.27;;;3.25;;
57842;SDS011;43673;51.058;3.734;2022-09-09T03:52:16;12.45;;;2.90;;
57842;SDS011;43673;51.058;3.734;2022-09-09T03:54:42;11.32;;;3.90;;
57842;SDS011;43673;51.058;3.734;2022-09-09T03:57:11;10.27;;;2.78;;
57842;SDS011;43673;51.058;3.734;2022-09-09T03:59:38;15.68;;;4.65;;
57842;SDS011;43673;51.058;3.734;2022-09-09T04:02:03;13.55;;;3.92;;
57842;SDS011;43673;51.058;3.734;2022-09-09T04:04:29;8.63;;;2.80;;
57842;SDS011;43673;51.058;3.734;2022-09-09T04:06:55;15.93;;;4.70;;
57842;SDS011;43673;51.058;3.734;2022-09-09T04:09:20;20.40;;;3.65;;
57842;SDS011;43673;51.058;3.734;2022-09-09T04:11:46;6.50;;;3.00;;
57842;SDS011;43673;51.058;3.734;2022-09-09T04:14:12;10.82;;;3.15;;
57842;SDS011;43673;51.058;3.734;2022-09-09T04:16:38;12.25;;;3.65;;
57842;SDS011;43673;51.058;3.734;2022-09-09T04:19:08;20.00;;;5.18;;
57842;SDS011;43673;51.058;3.734;2022-09-09T04:21:33;15.00;;;4.40;;
57842;SDS011;43673;51.058;3.734;2022-09-09T04:23:59;11.43;;;3.60;;
57842;SDS011;43673;51.058;3.734;2022-09-09T04:26:25;11.90;;;3.42;;
57842;SDS011;43673;51.058;3.734;2022-09-09T04:28:50;12.25;;;3.40;;
57842;SDS011;43673;51.058;3.734;2022-09-09T04:31:17;12.20;;;3.95;;
57842;SDS011;43673;51.058;3.734;2022-09-09T04:33:46;12.57;;;3.22;;
57842;SDS011;43673;51.058;3.734;2022-09-09T04:36:12;8.55;;;4.53;;
57842;SDS011;43673;51.058;3.734;2022-09-09T04:38:38;14.70;;;3.70;;
57842;SDS011;43673;51.058;3.734;2022-09-09T04:41:04;16.42;;;3.83;;
57842;SDS011;43673;51.058;3.734;2022-09-09T04:43:31;22.05;;;4.80;;
57842;SDS011;43673;51.058;3.734;2022-09-09T04:45:57;10.90;;;3.47;;
57842;SDS011;43673;51.058;3.734;2022-09-09T04:48:24;13.70;;;4.13;;
57842;SDS011;43673;51.058;3.734;2022-09-09T04:53:26;8.15;;;3.65;;
57842;SDS011;43673;51.058;3.734;2022-09-09T04:56:00;13.00;;;3.92;;
57842;SDS011;43673;51.058;3.734;2022-09-09T04:58:30;11.13;;;3.50;;
57842;SDS011;43673;51.058;3.734;2022-09-09T05:01:06;16.02;;;4.03;;
57842;SDS011;43673;51.058;3.734;2022-09-09T05:03:33;16.48;;;4.25;;
57842;SDS011;43673;51.058;3.734;2022-09-09T05:08:36;17.10;;;4.32;;
57842;SDS011;43673;51.058;3.734;2022-09-09T05:11:02;17.55;;;4.72;;
57842;SDS011;43673;51.058;3.734;2022-09-09T05:13:29;14.00;;;4.43;;
57842;SDS011;43673;51.058;3.734;2022-09-09T05:15:56;14.68;;;4.78;;
57842;SDS011;43673;51.058;3.734;2022-09-09T05:18:22;17.58;;;4.35;;
57842;SDS011;43673;51.058;3.734;2022-09-09T05:20:48;15.27;;;5.00;;
57842;SDS011;43673;51.058;3.734;2022-09-09T05:23:15;12.32;;;5.45;;
57842;SDS011;43673;51.058;3.734;2022-09-09T05:25:41;9.07;;;4.00;;
57842;SDS011;43673;51.058;3.734;2022-09-09T05:28:07;13.82;;;5.05;;
57842;SDS011;43673;51.058;3.734;2022-09-09T05:30:33;15.45;;;4.78;;
57842;SDS011;43673;51.058;3.734;2022-09-09T05:32:59;17.02;;;5.25;;
57842;SDS011;43673;51.058;3.734;2022-09-09T05:35:25;11.73;;;3.63;;
57842;SDS011;43673;51.058;3.734;2022-09-09T05:37:50;14.02;;;4.03;;
57842;SDS011;43673;51.058;3.734;2022-09-09T05:40:16;14.23;;;3.70;;
57842;SDS011;43673;51.058;3.734;2022-09-09T05:42:42;16.38;;;4.88;;
57842;SDS011;43673;51.058;3.734;2022-09-09T05:45:08;16.55;;;5.15;;
57842;SDS011;43673;51.058;3.734;2022-09-09T05:47:35;14.40;;;3.97;;
57842;SDS011;43673;51.058;3.734;2022-09-09T05:50:02;15.30;;;4.88;;
57842;SDS011;43673;51.058;3.734;2022-09-09T05:52:28;17.25;;;5.10;;
57842;SDS011;43673;51.058;3.734;2022-09-09T05:54:53;9.27;;;3.97;;
57842;SDS011;43673;51.058;3.734;2022-09-09T05:57:20;16.98;;;4.05;;
57842;SDS011;43673;51.058;3.734;2022-09-09T05:59:46;12.57;;;4.05;;
57842;SDS011;43673;51.058;3.734;2022-09-09T06:02:11;12.88;;;4.43;;
57842;SDS011;43673;51.058;3.734;2022-09-09T06:04:38;13.48;;;4.18;;
57842;SDS011;43673;51.058;3.734;2022-09-09T06:07:04;13.82;;;3.92;;
57842;SDS011;43673;51.058;3.734;2022-09-09T06:09:30;13.15;;;3.40;;
57842;SDS011;43673;51.058;3.734;2022-09-09T06:11:56;13.88;;;4.68;;
57842;SDS011;43673;51.058;3.734;2022-09-09T06:14:23;11.45;;;4.28;;
57842;SDS011;43673;51.058;3.734;2022-09-09T06:16:50;14.93;;;4.55;;
57842;SDS011;43673;51.058;3.734;2022-09-09T06:19:17;10.32;;;3.47;;
57842;SDS011;43673;51.058;3.734;2022-09-09T06:21:45;15.35;;;4.63;;
57842;SDS011;43673;51.058;3.734;2022-09-09T06:24:12;14.85;;;4.53;;
57842;SDS011;43673;51.058;3.734;2022-09-09T06:26:42;12.20;;;3.93;;
57842;SDS011;43673;51.058;3.734;2022-09-09T06:29:08;15.15;;;4.50;;
57842;SDS011;43673;51.058;3.734;2022-09-09T06:31:37;11.45;;;4.32;;
57842;SDS011;43673;51.058;3.734;2022-09-09T06:34:46;11.27;;;4.55;;
57842;SDS011;43673;51.058;3.734;2022-09-09T06:37:14;10.23;;;4.35;;
57842;SDS011;43673;51.058;3.734;2022-09-09T06:39:40;11.55;;;5.38;;
57842;SDS011;43673;51.058;3.734;2022-09-09T06:42:21;8.57;;;4.53;;
57842;SDS011;43673;51.058;3.734;2022-09-09T06:45:02;14.82;;;5.05;;
57842;SDS011;43673;51.058;3.734;2022-09-09T06:47:28;13.63;;;4.63;;
57842;SDS011;43673;51.058;3.734;2022-09-09T06:49:55;16.02;;;5.00;;
57842;SDS011;43673;51.058;3.734;2022-09-09T06:52:21;19.20;;;4.45;;
57842;SDS011;43673;51.058;3.734;2022-09-09T06:54:47;10.18;;;5.03;;
57842;SDS011;43673;51.058;3.734;2022-09-09T06:57:12;14.23;;;4.40;;
57842;SDS011;43673;51.058;3.734;2022-09-09T06:59:38;18.05;;;5.57;;
57842;SDS011;43673;51.058;3.734;2022-09-09T07:02:04;8.55;;;3.45;;
57842;SDS011;43673;51.058;3.734;2022-09-09T07:04:29;10.75;;;4.25;;
57842;SDS011;43673;51.058;3.734;2022-09-09T07:06:55;11.82;;;3.83;;
57842;SDS011;43673;51.058;3.734;2022-09-09T07:09:20;6.35;;;3.10;;
57842;SDS011;43673;51.058;3.734;2022-09-09T07:11:47;12.57;;;3.10;;
57842;SDS011;43673;51.058;3.734;2022-09-09T07:14:15;11.63;;;3.72;;
57842;SDS011;43673;51.058;3.734;2022-09-09T07:16:44;12.30;;;3.83;;
57842;SDS011;43673;51.058;3.734;2022-09-09T07:19:11;9.55;;;3.50;;
57842;SDS011;43673;51.058;3.734;2022-09-09T07:21:37;11.05;;;3.33;;
57842;SDS011;43673;51.058;3.734;2022-09-09T07:24:05;12.77;;;4.78;;
57842;SDS011;43673;51.058;3.734;2022-09-09T07:26:32;11.52;;;3.33;;
57842;SDS011;43673;51.058;3.734;2022-09-09T07:28:58;7.25;;;3.10;;
57842;SDS011;43673;51.058;3.734;2022-09-09T07:31:25;7.40;;;3.70;;
57842;SDS011;43673;51.058;3.734;2022-09-09T07:33:57;12.88;;;4.15;;
57842;SDS011;43673;51.058;3.734;2022-09-09T07:36:25;8.55;;;3.13;;
57842;SDS011;43673;51.058;3.734;2022-09-09T07:38:54;15.88;;;3.78;;
57842;SDS011;43673;51.058;3.734;2022-09-09T07:41:23;10.63;;;3.45;;
57842;SDS011;43673;51.058;3.734;2022-09-09T07:43:51;9.90;;;3.57;;
57842;SDS011;43673;51.058;3.734;2022-09-09T07:46:21;8.90;;;3.10;;
57842;SDS011;43673;51.058;3.734;2022-09-09T07:48:49;9.05;;;3.50;;
57842;SDS011;43673;51.058;3.734;2022-09-09T07:51:17;10.05;;;3.75;;
57842;SDS011;43673;51.058;3.734;2022-09-09T07:54:04;12.95;;;3.15;;
57842;SDS011;43673;51.058;3.734;2022-09-09T07:56:32;6.93;;;3.95;;
57842;SDS011;43673;51.058;3.734;2022-09-09T07:58:58;17.52;;;3.63;;
57842;SDS011;43673;51.058;3.734;2022-09-09T08:01:25;13.93;;;3.13;;
57842;SDS011;43673;51.058;3.734;2022-09-09T08:04:13;14.70;;;3.30;;
57842;SDS011;43673;51.058;3.734;2022-09-09T08:06:52;12.73;;;3.00;;
57842;SDS011;43673;51.058;3.734;2022-09-09T08:09:19;10.35;;;3.60;;
57842;SDS011;43673;51.058;3.734;2022-09-09T08:11:45;6.75;;;3.05;;
57842;SDS011;43673;51.058;3.734;2022-09-09T08:14:12;9.48;;;3.50;;
57842;SDS011;43673;51.058;3.734;2022-09-09T08:16:39;12.27;;;4.13;;
57842;SDS011;43673;51.058;3.734;2022-09-09T08:19:10;9.98;;;3.90;;
57842;SDS011;43673;51.058;3.734;2022-09-09T08:21:37;12.18;;;3.00;;
57842;SDS011;43673;51.058;3.734;2022-09-09T08:24:09;11.20;;;7.00;;
57842;SDS011;43673;51.058;3.734;2022-09-09T08:26:37;12.18;;;4.32;;
57842;SDS011;43673;51.058;3.734;2022-09-09T08:29:08;11.05;;;3.63;;
57842;SDS011;43673;51.058;3.734;2022-09-09T08:31:36;11.50;;;4.10;;
57842;SDS011;43673;51.058;3.734;2022-09-09T08:34:08;8.00;;;2.85;;
57842;SDS011;43673;51.058;3.734;2022-09-09T08:36:36;8.13;;;2.95;;
57842;SDS011;43673;51.058;3.734;2022-09-09T08:39:05;8.00;;;2.67;;
57842;SDS011;43673;51.058;3.734;2022-09-09T08:41:44;9.15;;;3.35;;
57842;SDS011;43673;51.058;3.734;2022-09-09T08:44:47;16.20;;;4.60;;
57842;SDS011;43673;51.058;3.734;2022-09-09T08:50:13;10.85;;;2.85;;
57842;SDS011;43673;51.058;3.734;2022-09-09T08:55:50;8.38;;;2.63;;
57842;SDS011;43673;51.058;3.734;2022-09-09T08:58:25;5.47;;;2.90;;
57842;SDS011;43673;51.058;3.734;2022-09-09T09:06:46;7.88;;;2.58;;
57842;SDS011;43673;51.058;3.734;2022-09-09T09:12:25;9.25;;;4.45;;
57842;SDS011;43673;51.058;3.734;2022-09-09T09:14:55;6.07;;;2.83;;
57842;SDS011;43673;51.058;3.734;2022-09-09T09:17:23;7.88;;;2.90;;
57842;SDS011;43673;51.058;3.734;2022-09-09T09:19:52;11.63;;;3.35;;
57842;SDS011;43673;51.058;3.734;2022-09-09T09:22:39;8.73;;;3.47;;
57842;SDS011;43673;51.058;3.734;2022-09-09T09:35:45;7.38;;;2.75;;
57842;SDS011;43673;51.058;3.734;2022-09-09T09:38:24;12.15;;;3.08;;
57842;SDS011;43673;51.058;3.734;2022-09-09T09:40:52;6.00;;;2.55;;
57842;SDS011;43673;51.058;3.734;2022-09-09T09:45:54;7.45;;;2.55;;
57842;SDS011;43673;51.058;3.734;2022-09-09T09:48:22;8.88;;;3.13;;
57842;SDS011;43673;51.058;3.734;2022-09-09T09:51:00;7.55;;;2.78;;
57842;SDS011;43673;51.058;3.734;2022-09-09T09:53:38;5.10;;;2.20;;
57842;SDS011;43673;51.058;3.734;2022-09-09T09:56:13;8.80;;;2.83;;
57842;SDS011;43673;51.058;3.734;2022-09-09T10:01:31;8.33;;;2.70;;
57842;SDS011;43673;51.058;3.734;2022-09-09T10:04:40;5.30;;;2.38;;
57842;SDS011;43673;51.058;3.734;2022-09-09T10:06:48;7.55;;;2.60;;
57842;SDS011;43673;51.058;3.734;2022-09-09T10:12:00;6.15;;;2.47;;
57842;SDS011;43673;51.058;3.734;2022-09-09T10:23:32;4.22;;;2.42;;
57842;SDS011;43673;51.058;3.734;2022-09-09T10:40:19;4.10;;;2.10;;
57842;SDS011;43673;51.058;3.734;2022-09-09T10:43:25;6.43;;;2.10;;
57842;SDS011;43673;51.058;3.734;2022-09-09T10:46:04;6.70;;;3.20;;
57842;SDS011;43673;51.058;3.734;2022-09-09T10:54:50;6.00;;;2.28;;
57842;SDS011;43673;51.058;3.734;2022-09-09T10:57:31;8.15;;;2.30;;
57842;SDS011;43673;51.058;3.734;2022-09-09T11:00:13;6.80;;;2.33;;
57842;SDS011;43673;51.058;3.734;2022-09-09T11:02:40;5.00;;;2.72;;
57842;SDS011;43673;51.058;3.734;2022-09-09T11:05:31;5.13;;;2.75;;
57842;SDS011;43673;51.058;3.734;2022-09-09T11:08:09;5.22;;;2.03;;
57842;SDS011;43673;51.058;3.734;2022-09-09T11:10:58;10.23;;;3.47;;
57842;SDS011;43673;51.058;3.734;2022-09-09T11:13:30;5.18;;;2.20;;
57842;SDS011;43673;51.058;3.734;2022-09-09T11:16:20;3.05;;;1.92;;
57842;SDS011;43673;51.058;3.734;2022-09-09T11:18:50;8.40;;;2.03;;
57842;SDS011;43673;51.058;3.734;2022-09-09T11:21:31;5.07;;;2.15;;
57842;SDS011;43673;51.058;3.734;2022-09-09T11:24:03;5.30;;;2.15;;
57842;SDS011;43673;51.058;3.734;2022-09-09T11:27:17;5.65;;;2.10;;
57842;SDS011;43673;51.058;3.734;2022-09-09T11:34:47;5.10;;;2.10;;
57842;SDS011;43673;51.058;3.734;2022-09-09T11:40:55;6.00;;;1.77;;
57842;SDS011;43673;51.058;3.734;2022-09-09T11:45:58;2.83;;;2.00;;
57842;SDS011;43673;51.058;3.734;2022-09-09T11:51:05;11.73;;;2.80;;
57842;SDS011;43673;51.058;3.734;2022-09-09T11:56:32;2.88;;;1.60;;
57842;SDS011;43673;51.058;3.734;2022-09-09T11:59:20;4.55;;;1.90;;
57842;SDS011;43673;51.058;3.734;2022-09-09T12:01:57;3.50;;;1.65;;
57842;SDS011;43673;51.058;3.734;2022-09-09T12:04:49;3.90;;;1.45;;
57842;SDS011;43673;51.058;3.734;2022-09-09T12:08:07;5.57;;;2.15;;
57842;SDS011;43673;51.058;3.734;2022-09-09T12:10:22;7.53;;;2.40;;
57842;SDS011;43673;51.058;3.734;2022-09-09T12:18:24;3.45;;;1.70;;
57842;SDS011;43673;51.058;3.734;2022-09-09T12:23:43;4.70;;;2.00;;
57842;SDS011;43673;51.058;3.734;2022-09-09T12:26:28;2.78;;;1.63;;
57842;SDS011;43673;51.058;3.734;2022-09-09T12:29:02;4.97;;;3.28;;
57842;SDS011;43673;51.058;3.734;2022-09-09T12:31:56;6.83;;;1.90;;
57842;SDS011;43673;51.058;3.734;2022-09-09T12:40:04;4.15;;;2.33;;
57842;SDS011;43673;51.058;3.734;2022-09-09T12:42:48;8.57;;;2.35;;
57842;SDS011;43673;51.058;3.734;2022-09-09T12:45:16;6.82;;;1.98;;
57842;SDS011;43673;51.058;3.734;2022-09-09T12:47:45;5.78;;;1.88;;
57842;SDS011;43673;51.058;3.734;2022-09-09T12:50:32;2.67;;;1.77;;
57842;SDS011;43673;51.058;3.734;2022-09-09T12:53:03;12.57;;;2.35;;
57842;SDS011;43673;51.058;3.734;2022-09-09T12:55:35;5.85;;;2.47;;
57842;SDS011;43673;51.058;3.734;2022-09-09T12:58:03;2.03;;;1.73;;
57842;SDS011;43673;51.058;3.734;2022-09-09T13:00:31;6.55;;;1.85;;
57842;SDS011;43673;51.058;3.734;2022-09-09T13:03:02;3.15;;;2.20;;
57842;SDS011;43673;51.058;3.734;2022-09-09T13:05:41;5.10;;;2.35;;
57842;SDS011;43673;51.058;3.734;2022-09-09T13:08:11;4.10;;;2.10;;
57842;SDS011;43673;51.058;3.734;2022-09-09T13:10:52;3.90;;;2.45;;
57842;SDS011;43673;51.058;3.734;2022-09-09T13:16:02;2.78;;;2.00;;
57842;SDS011;43673;51.058;3.734;2022-09-09T13:18:33;6.57;;;1.92;;
57842;SDS011;43673;51.058;3.734;2022-09-09T13:21:00;8.50;;;3.15;;
57842;SDS011;43673;51.058;3.734;2022-09-09T13:23:26;4.53;;;2.28;;
57842;SDS011;43673;51.058;3.734;2022-09-09T13:26:04;7.50;;;2.45;;
57842;SDS011;43673;51.058;3.734;2022-09-09T13:28:43;7.97;;;2.20;;
57842;SDS011;43673;51.058;3.734;2022-09-09T13:31:21;4.95;;;1.95;;
57842;SDS011;43673;51.058;3.734;2022-09-09T13:33:49;8.02;;;2.92;;
57842;SDS011;43673;51.058;3.734;2022-09-09T13:36:15;5.40;;;1.88;;
57842;SDS011;43673;51.058;3.734;2022-09-09T13:41:19;5.20;;;1.92;;
57842;SDS011;43673;51.058;3.734;2022-09-09T13:43:49;6.05;;;1.83;;
57842;SDS011;43673;51.058;3.734;2022-09-09T13:46:33;8.55;;;2.22;;
57842;SDS011;43673;51.058;3.734;2022-09-09T13:54:05;6.20;;;2.10;;
57842;SDS011;43673;51.058;3.734;2022-09-09T13:56:34;5.53;;;2.15;;
57842;SDS011;43673;51.058;3.734;2022-09-09T13:59:01;2.42;;;1.80;;
57842;SDS011;43673;51.058;3.734;2022-09-09T14:01:28;5.22;;;1.70;;
57842;SDS011;43673;51.058;3.734;2022-09-09T14:03:55;5.60;;;2.17;;
57842;SDS011;43673;51.058;3.734;2022-09-09T14:06:21;3.65;;;2.33;;
57842;SDS011;43673;51.058;3.734;2022-09-09T14:08:51;2.78;;;1.70;;
57842;SDS011;43673;51.058;3.734;2022-09-09T14:11:17;5.37;;;1.77;;
57842;SDS011;43673;51.058;3.734;2022-09-09T14:13:43;4.82;;;1.67;;
57842;SDS011;43673;51.058;3.734;2022-09-09T14:16:09;3.45;;;1.83;;
57842;SDS011;43673;51.058;3.734;2022-09-09T14:18:35;3.72;;;1.98;;
57842;SDS011;43673;51.058;3.734;2022-09-09T14:21:02;6.40;;;2.00;;
57842;SDS011;43673;51.058;3.734;2022-09-09T14:23:28;5.43;;;1.90;;
57842;SDS011;43673;51.058;3.734;2022-09-09T14:25:54;4.53;;;2.25;;
57842;SDS011;43673;51.058;3.734;2022-09-09T14:28:20;6.10;;;1.60;;
57842;SDS011;43673;51.058;3.734;2022-09-09T14:30:46;6.13;;;2.40;;
57842;SDS011;43673;51.058;3.734;2022-09-09T14:33:13;4.97;;;2.13;;
57842;SDS011;43673;51.058;3.734;2022-09-09T14:35:40;6.90;;;2.13;;
57842;SDS011;43673;51.058;3.734;2022-09-09T14:38:07;7.22;;;2.75;;
57842;SDS011;43673;51.058;3.734;2022-09-09T14:40:34;3.25;;;1.90;;
57842;SDS011;43673;51.058;3.734;2022-09-09T14:43:01;2.15;;;1.92;;
57842;SDS011;43673;51.058;3.734;2022-09-09T14:45:27;2.65;;;1.60;;
57842;SDS011;43673;51.058;3.734;2022-09-09T14:47:53;3.47;;;1.90;;
57842;SDS011;43673;51.058;3.734;2022-09-09T14:50:19;3.30;;;1.75;;
57842;SDS011;43673;51.058;3.734;2022-09-09T14:52:46;4.68;;;2.13;;
57842;SDS011;43673;51.058;3.734;2022-09-09T14:55:11;7.57;;;2.25;;
57842;SDS011;43673;51.058;3.734;2022-09-09T14:57:38;4.43;;;1.90;;
57842;SDS011;43673;51.058;3.734;2022-09-09T15:00:05;6.53;;;2.08;;
57842;SDS011;43673;51.058;3.734;2022-09-09T15:02:33;9.35;;;1.80;;
57842;SDS011;43673;51.058;3.734;2022-09-09T15:04:59;9.02;;;2.15;;
57842;SDS011;43673;51.058;3.734;2022-09-09T15:07:25;2.22;;;1.52;;
57842;SDS011;43673;51.058;3.734;2022-09-09T15:09:52;4.45;;;2.17;;
57842;SDS011;43673;51.058;3.734;2022-09-09T15:12:18;4.55;;;1.95;;
57842;SDS011;43673;51.058;3.734;2022-09-09T15:14:44;4.00;;;2.75;;
57842;SDS011;43673;51.058;3.734;2022-09-09T15:17:10;4.25;;;2.80;;
57842;SDS011;43673;51.058;3.734;2022-09-09T15:19:36;2.78;;;2.15;;
57842;SDS011;43673;51.058;3.734;2022-09-09T15:22:03;5.50;;;2.17;;
57842;SDS011;43673;51.058;3.734;2022-09-09T15:24:30;5.90;;;2.42;;
57842;SDS011;43673;51.058;3.734;2022-09-09T15:26:56;2.97;;;2.00;;
57842;SDS011;43673;51.058;3.734;2022-09-09T15:29:22;6.50;;;2.15;;
57842;SDS011;43673;51.058;3.734;2022-09-09T15:31:48;6.13;;;2.22;;
57842;SDS011;43673;51.058;3.734;2022-09-09T15:34:14;4.75;;;3.00;;
57842;SDS011;43673;51.058;3.734;2022-09-09T15:36:43;6.72;;;2.50;;
57842;SDS011;43673;51.058;3.734;2022-09-09T15:39:12;4.55;;;2.60;;
57842;SDS011;43673;51.058;3.734;2022-09-09T15:41:41;4.68;;;2.25;;
57842;SDS011;43673;51.058;3.734;2022-09-09T15:44:08;3.08;;;1.92;;
57842;SDS011;43673;51.058;3.734;2022-09-09T15:46:36;2.65;;;2.17;;
57842;SDS011;43673;51.058;3.734;2022-09-09T15:51:38;4.60;;;2.25;;
57842;SDS011;43673;51.058;3.734;2022-09-09T15:54:06;2.67;;;2.05;;
57842;SDS011;43673;51.058;3.734;2022-09-09T15:56:32;5.28;;;3.05;;
57842;SDS011;43673;51.058;3.734;2022-09-09T15:58:58;5.28;;;2.45;;
57842;SDS011;43673;51.058;3.734;2022-09-09T16:01:28;3.53;;;2.92;;
57842;SDS011;43673;51.058;3.734;2022-09-09T16:03:56;4.30;;;2.30;;
57842;SDS011;43673;51.058;3.734;2022-09-09T16:06:23;6.55;;;2.38;;
57842;SDS011;43673;51.058;3.734;2022-09-09T16:08:50;4.82;;;2.65;;
57842;SDS011;43673;51.058;3.734;2022-09-09T16:11:38;4.85;;;2.40;;
57842;SDS011;43673;51.058;3.734;2022-09-09T16:14:04;4.10;;;2.30;;
57842;SDS011;43673;51.058;3.734;2022-09-09T16:19:33;4.05;;;2.45;;
57842;SDS011;43673;51.058;3.734;2022-09-09T16:22:00;5.78;;;2.70;;
57842;SDS011;43673;51.058;3.734;2022-09-09T16:24:26;3.20;;;2.42;;
57842;SDS011;43673;51.058;3.734;2022-09-09T16:26:52;6.95;;;2.60;;
57842;SDS011;43673;51.058;3.734;2022-09-09T16:29:19;5.43;;;2.65;;
57842;SDS011;43673;51.058;3.734;2022-09-09T16:31:47;4.95;;;2.40;;
57842;SDS011;43673;51.058;3.734;2022-09-09T16:34:14;6.05;;;2.90;;
57842;SDS011;43673;51.058;3.734;2022-09-09T16:36:41;6.53;;;2.90;;
57842;SDS011;43673;51.058;3.734;2022-09-09T16:39:12;5.47;;;2.80;;
57842;SDS011;43673;51.058;3.734;2022-09-09T16:41:40;6.82;;;3.30;;
57842;SDS011;43673;51.058;3.734;2022-09-09T16:44:07;21.02;;;11.70;;
57842;SDS011;43673;51.058;3.734;2022-09-09T16:46:36;6.32;;;3.67;;
57842;SDS011;43673;51.058;3.734;2022-09-09T16:49:04;7.38;;;3.70;;
57842;SDS011;43673;51.058;3.734;2022-09-09T16:51:32;8.77;;;3.40;;
57842;SDS011;43673;51.058;3.734;2022-09-09T16:56:30;5.22;;;3.45;;
57842;SDS011;43673;51.058;3.734;2022-09-09T16:58:59;8.73;;;3.72;;
57842;SDS011;43673;51.058;3.734;2022-09-09T17:01:27;8.98;;;3.72;;
57842;SDS011;43673;51.058;3.734;2022-09-09T17:03:54;7.05;;;3.80;;
57842;SDS011;43673;51.058;3.734;2022-09-09T17:06:26;6.53;;;3.47;;
57842;SDS011;43673;51.058;3.734;2022-09-09T17:08:56;11.05;;;4.43;;
57842;SDS011;43673;51.058;3.734;2022-09-09T17:11:26;13.63;;;6.30;;
57842;SDS011;43673;51.058;3.734;2022-09-09T17:13:53;9.88;;;4.35;;
57842;SDS011;43673;51.058;3.734;2022-09-09T17:16:20;12.20;;;5.15;;
57842;SDS011;43673;51.058;3.734;2022-09-09T17:18:48;14.65;;;4.60;;
57842;SDS011;43673;51.058;3.734;2022-09-09T17:21:16;6.00;;;3.58;;
57842;SDS011;43673;51.058;3.734;2022-09-09T17:23:44;9.90;;;3.95;;
57842;SDS011;43673;51.058;3.734;2022-09-09T17:26:12;13.80;;;4.68;;
57842;SDS011;43673;51.058;3.734;2022-09-09T17:28:39;9.32;;;4.38;;
57842;SDS011;43673;51.058;3.734;2022-09-09T17:31:06;9.48;;;3.80;;
57842;SDS011;43673;51.058;3.734;2022-09-09T17:33:35;11.48;;;4.97;;
57842;SDS011;43673;51.058;3.734;2022-09-09T17:36:09;8.15;;;3.63;;
57842;SDS011;43673;51.058;3.734;2022-09-09T17:38:39;8.00;;;3.60;;
57842;SDS011;43673;51.058;3.734;2022-09-09T17:41:10;8.90;;;3.20;;
57842;SDS011;43673;51.058;3.734;2022-09-09T17:43:37;6.82;;;3.30;;